createdAt,value
2018-09-09T00:00:16.143Z,0.00
2018-09-09T00:01:16.169Z,0.00
2018-09-09T00:02:16.190Z,0.00
2018-09-09T00:03:16.218Z,0.10
2018-09-09T00:04:16.237Z,0.00
2018-09-09T00:05:16.256Z,0.00
2018-09-09T00:06:16.283Z,0.00
2018-09-09T00:07:16.303Z,0.10
2018-09-09T00:08:16.325Z,0.00
2018-09-09T00:09:16.352Z,0.00
2018-09-09T00:10:16.377Z,0.00
2018-09-09T00:11:16.395Z,0.00
2018-09-09T00:12:16.424Z,0.00
2018-09-09T00:13:16.441Z,0.00
2018-09-09T00:14:16.465Z,0.00
2018-09-09T00:15:16.491Z,0.00
2018-09-09T00:16:16.510Z,0.00
2018-09-09T00:17:16.538Z,0.00
2018-09-09T00:18:16.561Z,0.00
2018-09-09T00:19:16.582Z,0.00
2018-09-09T00:20:16.619Z,0.00
2018-09-09T00:21:16.626Z,0.00
2018-09-09T00:22:16.649Z,0.00
2018-09-09T00:23:16.673Z,0.00
2018-09-09T00:24:16.694Z,0.00
2018-09-09T00:25:16.729Z,0.00
2018-09-09T00:26:16.754Z,0.10
2018-09-09T00:27:16.768Z,0.00
2018-09-09T00:28:16.793Z,0.00
2018-09-09T00:29:16.821Z,0.00
2018-09-09T00:30:16.837Z,0.00
2018-09-09T00:31:16.857Z,0.00
2018-09-09T00:32:16.881Z,0.00
2018-09-09T00:33:16.908Z,0.00
2018-09-09T00:34:16.940Z,0.00
2018-09-09T00:35:16.952Z,0.00
2018-09-09T00:36:16.977Z,0.00
2018-09-09T00:37:16.999Z,0.00
2018-09-09T00:38:17.025Z,0.00
2018-09-09T00:39:17.044Z,0.00
2018-09-09T00:40:17.070Z,0.10
2018-09-09T00:41:17.087Z,0.00
2018-09-09T00:42:17.114Z,0.00
2018-09-09T00:43:17.131Z,0.10
2018-09-09T00:44:17.158Z,0.00
2018-09-09T00:45:17.183Z,0.00
2018-09-09T00:46:17.210Z,0.00
2018-09-09T00:47:17.227Z,0.00
2018-09-09T00:48:17.250Z,0.00
2018-09-09T00:49:17.275Z,0.00
2018-09-09T00:50:17.296Z,0.00
2018-09-09T00:51:17.323Z,0.00
2018-09-09T00:52:17.351Z,0.00
2018-09-09T00:53:17.363Z,0.00
2018-09-09T00:54:17.387Z,0.00
2018-09-09T00:55:17.419Z,0.00
2018-09-09T00:56:17.436Z,0.10
2018-09-09T00:57:17.464Z,0.00
2018-09-09T00:58:17.490Z,0.00
2018-09-09T00:59:17.505Z,0.00
2018-09-09T01:00:17.536Z,0.00
2018-09-09T01:01:17.553Z,0.00
2018-09-09T01:02:17.573Z,0.00
2018-09-09T01:03:17.601Z,0.00
2018-09-09T01:04:17.621Z,0.10
2018-09-09T01:05:17.645Z,0.00
2018-09-09T01:06:17.667Z,0.00
2018-09-09T01:07:17.690Z,0.00
2018-09-09T01:08:17.707Z,0.00
2018-09-09T01:09:17.737Z,0.00
2018-09-09T01:10:17.759Z,0.10
2018-09-09T01:11:17.785Z,0.00
2018-09-09T01:12:17.803Z,0.00
2018-09-09T01:13:17.830Z,0.00
2018-09-09T01:14:17.852Z,0.10
2018-09-09T01:15:17.889Z,0.00
2018-09-09T01:16:17.897Z,0.10
2018-09-09T01:17:17.922Z,0.00
2018-09-09T01:18:17.945Z,0.10
2018-09-09T01:19:17.964Z,0.10
2018-09-09T01:20:17.988Z,0.10
2018-09-09T01:21:18.010Z,0.00
2018-09-09T01:22:18.034Z,0.10
2018-09-09T01:23:18.059Z,0.10
2018-09-09T01:24:18.080Z,0.10
2018-09-09T01:25:18.105Z,0.10
2018-09-09T01:26:18.128Z,0.00
2018-09-09T01:27:18.154Z,0.10
2018-09-09T01:28:18.172Z,0.10
2018-09-09T01:29:18.194Z,0.00
2018-09-09T01:30:18.219Z,0.00
2018-09-09T01:31:18.236Z,0.00
2018-09-09T01:32:18.263Z,0.00
2018-09-09T01:33:18.286Z,0.10
2018-09-09T01:34:18.318Z,0.00
2018-09-09T01:35:18.332Z,0.00
2018-09-09T01:36:18.356Z,0.00
2018-09-09T01:37:18.374Z,0.00
2018-09-09T01:38:18.402Z,0.00
2018-09-09T01:39:18.422Z,0.00
2018-09-09T01:40:18.440Z,0.00
2018-09-09T01:41:18.470Z,0.10
2018-09-09T01:42:18.495Z,0.00
2018-09-09T01:43:18.516Z,0.10
2018-09-09T01:44:18.543Z,0.00
2018-09-09T01:45:18.556Z,0.00
2018-09-09T01:46:18.583Z,0.10
2018-09-09T01:47:18.607Z,0.00
2018-09-09T01:48:18.626Z,0.00
2018-09-09T01:49:18.652Z,0.00
2018-09-09T01:50:18.673Z,0.00
2018-09-09T01:51:18.696Z,0.00
2018-09-09T01:52:18.719Z,0.00
2018-09-09T01:53:18.742Z,0.10
2018-09-09T01:54:18.769Z,0.10
2018-09-09T01:55:18.784Z,0.00
2018-09-09T01:56:18.812Z,0.00
2018-09-09T01:57:18.834Z,0.10
2018-09-09T01:58:18.854Z,0.00
2018-09-09T01:59:18.875Z,0.10
2018-09-09T02:00:18.902Z,0.00
2018-09-09T02:01:18.923Z,0.00
2018-09-09T02:02:18.944Z,0.10
2018-09-09T02:03:18.966Z,0.00
2018-09-09T02:04:18.992Z,0.10
2018-09-09T02:05:19.015Z,0.10
2018-09-09T02:06:19.036Z,0.00
2018-09-09T02:07:19.058Z,0.00
2018-09-09T02:08:19.082Z,0.00
2018-09-09T02:09:19.106Z,0.00
2018-09-09T02:10:19.134Z,0.00
2018-09-09T02:11:19.154Z,0.10
2018-09-09T02:12:19.173Z,0.00
2018-09-09T02:13:19.194Z,0.10
2018-09-09T02:14:19.220Z,0.00
2018-09-09T02:15:19.241Z,0.00
2018-09-09T02:16:19.260Z,0.10
2018-09-09T02:17:19.289Z,0.10
2018-09-09T02:18:19.308Z,0.10
2018-09-09T02:19:19.327Z,0.00
2018-09-09T02:20:19.402Z,0.10
2018-09-09T02:21:19.380Z,0.00
2018-09-09T02:22:19.397Z,0.00
2018-09-09T02:23:19.420Z,0.00
2018-09-09T02:24:19.444Z,0.10
2018-09-09T02:25:19.470Z,0.00
2018-09-09T02:26:19.506Z,0.00
2018-09-09T02:27:19.508Z,0.10
2018-09-09T02:28:19.536Z,0.10
2018-09-09T02:29:19.560Z,0.00
2018-09-09T02:30:19.580Z,0.10
2018-09-09T02:31:19.604Z,0.10
2018-09-09T02:32:19.622Z,0.10
2018-09-09T02:33:19.648Z,0.00
2018-09-09T02:34:19.718Z,0.10
2018-09-09T02:35:19.692Z,0.00
2018-09-09T02:36:19.720Z,0.00
2018-09-09T02:37:19.740Z,0.00
2018-09-09T02:38:19.765Z,0.00
2018-09-09T02:39:19.784Z,0.00
2018-09-09T02:40:19.803Z,0.00
2018-09-09T02:41:19.832Z,0.00
2018-09-09T02:42:19.850Z,0.00
2018-09-09T02:43:19.874Z,0.10
2018-09-09T02:44:19.894Z,0.00
2018-09-09T02:45:19.920Z,0.10
2018-09-09T02:46:19.941Z,0.10
2018-09-09T02:47:19.971Z,0.00
2018-09-09T02:48:19.988Z,0.10
2018-09-09T02:49:20.009Z,0.10
2018-09-09T02:50:20.037Z,0.00
2018-09-09T02:51:20.054Z,0.00
2018-09-09T02:52:20.076Z,0.00
2018-09-09T02:53:20.100Z,0.00
2018-09-09T02:54:20.134Z,0.00
2018-09-09T02:55:20.144Z,0.00
2018-09-09T02:56:20.191Z,0.00
2018-09-09T02:57:20.190Z,0.00
2018-09-09T02:58:20.218Z,0.00
2018-09-09T02:59:20.240Z,0.00
2018-09-09T03:00:20.257Z,0.10
2018-09-09T03:01:20.283Z,0.00
2018-09-09T03:02:20.309Z,0.00
2018-09-09T03:03:20.326Z,0.00
2018-09-09T03:04:20.351Z,0.00
2018-09-09T03:05:20.372Z,0.10
2018-09-09T03:06:20.406Z,0.10
2018-09-09T03:07:20.419Z,0.10
2018-09-09T03:08:20.446Z,0.10
2018-09-09T03:09:20.461Z,0.00
2018-09-09T03:10:20.641Z,0.10
2018-09-09T03:11:20.509Z,0.00
2018-09-09T03:12:20.531Z,0.00
2018-09-09T03:13:20.552Z,0.10
2018-09-09T03:14:20.579Z,0.10
2018-09-09T03:15:20.603Z,0.00
2018-09-09T03:16:20.624Z,0.10
2018-09-09T03:17:20.645Z,0.00
2018-09-09T03:18:20.667Z,0.00
2018-09-09T03:19:20.686Z,0.10
2018-09-09T03:20:20.713Z,0.00
2018-09-09T03:21:20.737Z,0.10
2018-09-09T03:22:20.761Z,0.00
2018-09-09T03:23:20.779Z,0.00
2018-09-09T03:24:20.807Z,0.00
2018-09-09T03:25:20.825Z,0.00
2018-09-09T03:26:20.847Z,0.00
2018-09-09T03:27:20.872Z,0.10
2018-09-09T03:28:20.923Z,0.00
2018-09-09T03:29:20.917Z,0.00
2018-09-09T03:30:20.941Z,0.10
2018-09-09T03:31:20.961Z,0.00
2018-09-09T03:32:20.990Z,0.00
2018-09-09T03:33:21.007Z,0.10
2018-09-09T03:34:21.024Z,0.00
2018-09-09T03:35:21.045Z,0.00
2018-09-09T03:36:21.075Z,0.10
2018-09-09T03:37:21.095Z,0.00
2018-09-09T03:38:21.115Z,0.00
2018-09-09T03:39:21.140Z,0.00
2018-09-09T03:40:21.161Z,0.00
2018-09-09T03:41:21.192Z,0.10
2018-09-09T03:42:21.205Z,0.00
2018-09-09T03:43:21.226Z,0.10
2018-09-09T03:44:21.251Z,0.10
2018-09-09T03:45:21.273Z,0.00
2018-09-09T03:46:21.297Z,0.00
2018-09-09T03:47:21.320Z,0.00
2018-09-09T03:48:21.341Z,0.00
2018-09-09T03:49:21.367Z,0.10
2018-09-09T03:50:21.391Z,0.00
2018-09-09T03:51:21.406Z,0.00
2018-09-09T03:52:21.434Z,0.10
2018-09-09T03:53:21.456Z,0.10
2018-09-09T03:54:21.475Z,0.00
2018-09-09T03:55:21.497Z,0.10
2018-09-09T03:56:21.529Z,0.10
2018-09-09T03:57:21.557Z,0.10
2018-09-09T03:58:21.565Z,0.10
2018-09-09T03:59:21.585Z,0.00
2018-09-09T04:00:21.607Z,0.10
2018-09-09T04:01:21.633Z,0.10
2018-09-09T04:02:21.657Z,0.00
2018-09-09T04:03:21.673Z,0.00
2018-09-09T04:04:21.705Z,0.00
2018-09-09T04:05:21.727Z,0.00
2018-09-09T04:06:21.752Z,0.00
2018-09-09T04:07:21.773Z,0.00
2018-09-09T04:08:21.793Z,0.10
2018-09-09T04:09:21.815Z,0.00
2018-09-09T04:10:21.837Z,0.00
2018-09-09T04:11:21.865Z,0.00
2018-09-09T04:12:21.880Z,0.00
2018-09-09T04:13:21.901Z,0.10
2018-09-09T04:14:21.927Z,0.00
2018-09-09T04:15:21.945Z,0.10
2018-09-09T04:16:21.972Z,0.00
2018-09-09T04:17:21.997Z,0.10
2018-09-09T04:18:22.016Z,0.00
2018-09-09T04:19:22.034Z,0.10
2018-09-09T04:20:22.061Z,0.00
2018-09-09T04:21:22.089Z,0.10
2018-09-09T04:22:22.107Z,0.10
2018-09-09T04:23:22.127Z,0.00
2018-09-09T04:24:22.149Z,0.10
2018-09-09T04:25:22.173Z,0.10
2018-09-09T04:26:22.198Z,0.10
2018-09-09T04:27:22.217Z,0.00
2018-09-09T04:28:22.241Z,0.10
2018-09-09T04:29:22.265Z,0.10
2018-09-09T04:30:22.293Z,0.00
2018-09-09T04:31:22.309Z,0.00
2018-09-09T04:32:22.329Z,0.10
2018-09-09T04:33:22.351Z,0.10
2018-09-09T04:34:22.377Z,0.00
2018-09-09T04:35:22.392Z,0.10
2018-09-09T04:36:22.423Z,0.10
2018-09-09T04:37:22.442Z,0.10
2018-09-09T04:38:22.465Z,0.10
2018-09-09T04:39:22.486Z,0.10
2018-09-09T04:40:22.510Z,0.10
2018-09-09T04:41:22.537Z,0.10
2018-09-09T04:42:22.557Z,0.10
2018-09-09T04:43:22.581Z,0.10
2018-09-09T04:44:22.600Z,0.10
2018-09-09T04:45:22.620Z,0.00
2018-09-09T04:46:22.685Z,0.10
2018-09-09T04:47:22.667Z,0.00
2018-09-09T04:48:22.692Z,0.10
2018-09-09T04:49:22.715Z,0.10
2018-09-09T04:50:22.733Z,0.00
2018-09-09T04:51:22.757Z,0.00
2018-09-09T04:52:22.779Z,0.00
2018-09-09T04:53:22.807Z,0.00
2018-09-09T04:54:22.823Z,0.00
2018-09-09T04:55:22.844Z,0.00
2018-09-09T04:56:22.873Z,0.00
2018-09-09T04:57:22.895Z,0.10
2018-09-09T04:58:22.913Z,0.10
2018-09-09T04:59:22.936Z,0.00
2018-09-09T05:00:22.959Z,0.00
2018-09-09T05:01:23.064Z,0.10
2018-09-09T05:02:23.003Z,0.10
2018-09-09T05:03:23.083Z,0.10
2018-09-09T05:04:23.053Z,0.10
2018-09-09T05:05:23.077Z,0.00
2018-09-09T05:06:23.096Z,0.10
2018-09-09T05:07:23.117Z,0.10
2018-09-09T05:08:23.143Z,0.10
2018-09-09T05:09:23.164Z,0.10
2018-09-09T05:10:23.187Z,0.10
2018-09-09T05:11:23.207Z,0.10
2018-09-09T05:12:23.239Z,0.10
2018-09-09T05:13:23.253Z,0.00
2018-09-09T05:14:23.271Z,0.10
2018-09-09T05:15:23.305Z,0.00
2018-09-09T05:16:23.321Z,0.10
2018-09-09T05:17:23.347Z,0.10
2018-09-09T05:18:23.365Z,0.10
2018-09-09T05:19:23.387Z,0.10
2018-09-09T05:20:23.413Z,0.10
2018-09-09T05:21:23.434Z,0.10
2018-09-09T05:22:23.452Z,0.10
2018-09-09T05:23:23.479Z,0.10
2018-09-09T05:24:23.506Z,0.00
2018-09-09T05:25:23.524Z,0.10
2018-09-09T05:26:23.543Z,0.10
2018-09-09T05:27:23.573Z,0.10
2018-09-09T05:28:23.593Z,0.10
2018-09-09T05:29:23.617Z,0.00
2018-09-09T05:30:23.640Z,0.10
2018-09-09T05:31:23.655Z,0.10
2018-09-09T05:32:23.681Z,0.10
2018-09-09T05:33:23.706Z,0.10
2018-09-09T05:34:23.729Z,0.10
2018-09-09T05:35:23.751Z,0.00
2018-09-09T05:36:23.771Z,0.00
2018-09-09T05:37:23.793Z,0.00
2018-09-09T05:38:23.816Z,0.10
2018-09-09T05:39:23.844Z,0.10
2018-09-09T05:40:23.857Z,0.00
2018-09-09T05:41:23.881Z,0.10
2018-09-09T05:42:23.993Z,0.10
2018-09-09T05:43:23.927Z,0.10
2018-09-09T05:44:23.953Z,0.10
2018-09-09T05:45:23.983Z,0.10
2018-09-09T05:46:24.002Z,0.00
2018-09-09T05:47:24.019Z,0.00
2018-09-09T05:48:24.041Z,0.00
2018-09-09T05:49:24.065Z,0.10
2018-09-09T05:50:24.091Z,0.10
2018-09-09T05:51:24.110Z,0.00
2018-09-09T05:52:24.137Z,0.10
2018-09-09T05:53:24.159Z,0.10
2018-09-09T05:54:24.180Z,0.10
2018-09-09T05:55:24.201Z,0.00
2018-09-09T05:56:24.221Z,0.10
2018-09-09T05:57:24.306Z,0.10
2018-09-09T05:58:24.268Z,0.10
2018-09-09T05:59:24.292Z,0.10
2018-09-09T06:00:24.313Z,0.00
2018-09-09T06:01:24.338Z,0.00
2018-09-09T06:02:24.367Z,0.10
2018-09-09T06:03:24.380Z,0.10
2018-09-09T06:04:24.402Z,0.00
2018-09-09T06:05:24.436Z,0.10
2018-09-09T06:06:24.457Z,0.10
2018-09-09T06:07:24.490Z,0.10
2018-09-09T06:08:24.500Z,0.00
2018-09-09T06:09:24.524Z,0.10
2018-09-09T06:10:24.547Z,0.00
2018-09-09T06:11:24.563Z,0.10
2018-09-09T06:12:24.592Z,0.10
2018-09-09T06:13:24.615Z,0.10
2018-09-09T06:14:24.632Z,0.00
2018-09-09T06:15:24.659Z,0.10
2018-09-09T06:16:24.684Z,0.10
2018-09-09T06:17:24.705Z,0.10
2018-09-09T06:18:24.730Z,0.00
2018-09-09T06:19:24.747Z,0.10
2018-09-09T06:20:24.772Z,0.10
2018-09-09T06:21:24.800Z,0.10
2018-09-09T06:22:24.822Z,0.10
2018-09-09T06:23:24.839Z,0.10
2018-09-09T06:24:24.865Z,0.00
2018-09-09T06:25:24.889Z,0.00
2018-09-09T06:26:24.910Z,0.10
2018-09-09T06:27:24.938Z,0.10
2018-09-09T06:28:25.004Z,0.10
2018-09-09T06:29:24.982Z,0.10
2018-09-09T06:30:25.006Z,0.10
2018-09-09T06:31:25.031Z,0.10
2018-09-09T06:32:25.059Z,0.10
2018-09-09T06:33:25.076Z,0.10
2018-09-09T06:34:25.099Z,0.00
2018-09-09T06:35:25.119Z,0.10
2018-09-09T06:36:25.144Z,0.00
2018-09-09T06:37:25.168Z,0.00
2018-09-09T06:38:25.207Z,0.10
2018-09-09T06:39:25.219Z,0.10
2018-09-09T06:40:25.238Z,0.00
2018-09-09T06:41:25.256Z,0.10
2018-09-09T06:42:25.293Z,0.00
2018-09-09T06:43:25.308Z,0.10
2018-09-09T06:44:25.330Z,0.00
2018-09-09T06:45:25.358Z,0.10
2018-09-09T06:46:25.425Z,0.00
2018-09-09T06:47:25.400Z,0.00
2018-09-09T06:48:25.427Z,0.00
2018-09-09T06:49:25.443Z,0.00
2018-09-09T06:50:25.478Z,0.10
2018-09-09T06:51:25.621Z,0.00
2018-09-09T06:52:25.520Z,0.10
2018-09-09T06:53:25.546Z,0.10
2018-09-09T06:54:25.560Z,0.10
2018-09-09T06:55:25.595Z,0.10
2018-09-09T06:56:25.609Z,0.00
2018-09-09T06:57:25.633Z,0.10
2018-09-09T06:58:25.658Z,0.10
2018-09-09T06:59:25.692Z,0.10
2018-09-09T07:00:25.702Z,0.00
2018-09-09T07:01:25.732Z,0.10
2018-09-09T07:02:25.887Z,0.10
2018-09-09T07:03:25.778Z,0.10
2018-09-09T07:04:25.803Z,0.10
2018-09-09T07:05:25.823Z,0.10
2018-09-09T07:06:25.842Z,0.00
2018-09-09T07:07:25.867Z,0.00
2018-09-09T07:08:25.896Z,0.00
2018-09-09T07:09:25.920Z,0.00
2018-09-09T07:10:25.944Z,0.00
2018-09-09T07:11:26.124Z,0.00
2018-09-09T07:12:25.992Z,0.00
2018-09-09T07:13:26.015Z,0.00
2018-09-09T07:14:26.040Z,0.00
2018-09-09T07:15:26.057Z,0.00
2018-09-09T07:16:26.082Z,0.10
2018-09-09T07:17:26.106Z,0.00
2018-09-09T07:18:26.126Z,0.10
2018-09-09T07:19:26.161Z,0.00
2018-09-09T07:20:26.179Z,0.10
2018-09-09T07:21:26.203Z,0.10
2018-09-09T07:22:26.225Z,0.00
2018-09-09T07:23:26.248Z,0.00
2018-09-09T07:24:26.276Z,0.00
2018-09-09T07:25:26.300Z,0.00
2018-09-09T07:26:26.318Z,0.00
2018-09-09T07:27:26.344Z,0.00
2018-09-09T07:28:26.389Z,0.00
2018-09-09T07:29:26.394Z,0.00
2018-09-09T07:30:26.417Z,0.00
2018-09-09T07:31:26.443Z,0.10
2018-09-09T07:32:26.468Z,0.00
2018-09-09T07:33:26.489Z,0.10
2018-09-09T07:34:26.511Z,0.10
2018-09-09T07:35:26.531Z,0.00
2018-09-09T07:36:26.560Z,0.10
2018-09-09T07:37:26.631Z,0.00
2018-09-09T07:38:26.613Z,0.00
2018-09-09T07:39:26.632Z,0.00
2018-09-09T07:40:26.661Z,0.10
2018-09-09T07:41:26.680Z,0.00
2018-09-09T07:42:26.706Z,0.10
2018-09-09T07:43:26.731Z,0.10
2018-09-09T07:44:26.759Z,0.10
2018-09-09T07:45:26.775Z,0.10
2018-09-09T07:46:26.863Z,0.00
2018-09-09T07:47:27.236Z,0.00
2018-09-09T07:48:26.847Z,0.00
2018-09-09T07:49:26.881Z,0.00
2018-09-09T07:50:26.897Z,0.00
2018-09-09T07:51:26.950Z,0.10
2018-09-09T07:52:26.946Z,0.10
2018-09-09T07:53:26.975Z,0.00
2018-09-09T07:54:27.003Z,0.10
2018-09-09T07:55:27.026Z,0.10
2018-09-09T07:56:27.043Z,0.00
2018-09-09T07:57:27.073Z,0.00
2018-09-09T07:58:27.092Z,0.00
2018-09-09T07:59:27.116Z,0.10
2018-09-09T08:00:27.174Z,0.00
2018-09-09T08:01:27.169Z,0.00
2018-09-09T08:02:27.195Z,0.00
2018-09-09T08:03:27.216Z,0.00
2018-09-09T08:04:27.242Z,0.00
2018-09-09T08:05:27.260Z,0.00
2018-09-09T08:06:27.285Z,0.00
2018-09-09T08:07:27.316Z,0.00
2018-09-09T08:08:27.337Z,0.10
2018-09-09T08:09:27.367Z,0.10
2018-09-09T08:10:27.387Z,0.10
2018-09-09T08:11:27.411Z,0.00
2018-09-09T08:12:27.429Z,0.00
2018-09-09T08:13:27.459Z,0.10
2018-09-09T08:14:27.501Z,0.10
2018-09-09T08:15:27.541Z,0.10
2018-09-09T08:16:27.539Z,0.10
2018-09-09T08:17:27.561Z,0.10
2018-09-09T08:18:27.644Z,0.00
2018-09-09T08:19:27.607Z,0.10
2018-09-09T08:20:27.629Z,0.10
2018-09-09T08:21:27.655Z,0.00
2018-09-09T08:22:27.680Z,0.10
2018-09-09T08:23:27.762Z,0.00
2018-09-09T08:24:27.733Z,0.00
2018-09-09T08:25:27.754Z,0.00
2018-09-09T08:26:27.784Z,0.10
2018-09-09T08:27:27.807Z,0.10
2018-09-09T08:28:27.828Z,0.00
2018-09-09T08:29:27.853Z,0.00
2018-09-09T08:30:27.879Z,0.00
2018-09-09T08:31:27.913Z,0.00
2018-09-09T08:32:27.925Z,0.00
2018-09-09T08:33:27.954Z,0.00
2018-09-09T08:34:27.974Z,0.10
2018-09-09T08:35:28.000Z,0.00
2018-09-09T08:36:28.023Z,0.10
2018-09-09T08:37:28.062Z,0.10
2018-09-09T08:38:28.075Z,0.10
2018-09-09T08:39:28.110Z,0.10
2018-09-09T08:40:28.127Z,0.10
2018-09-09T08:41:28.155Z,0.10
2018-09-09T08:42:28.180Z,0.00
2018-09-09T08:43:28.199Z,0.00
2018-09-09T08:44:28.226Z,0.10
2018-09-09T08:45:28.286Z,0.00
2018-09-09T08:46:28.274Z,0.10
2018-09-09T08:47:28.300Z,0.10
2018-09-09T08:48:28.325Z,0.10
2018-09-09T08:49:28.347Z,0.10
2018-09-09T08:50:28.376Z,0.10
2018-09-09T08:51:28.406Z,0.10
2018-09-09T08:52:28.424Z,0.00
2018-09-09T08:53:28.452Z,0.00
2018-09-09T08:54:28.480Z,0.10
2018-09-09T08:55:28.514Z,0.00
2018-09-09T08:56:28.524Z,0.10
2018-09-09T08:57:28.608Z,0.00
2018-09-09T08:58:28.580Z,0.10
2018-09-09T08:59:28.603Z,0.10
2018-09-09T09:00:28.631Z,0.00
2018-09-09T09:01:28.657Z,0.10
2018-09-09T09:02:28.683Z,0.00
2018-09-09T09:03:28.706Z,0.10
2018-09-09T09:04:28.729Z,0.00
2018-09-09T09:05:28.756Z,0.10
2018-09-09T09:06:28.785Z,0.00
2018-09-09T09:07:28.887Z,0.10
2018-09-09T09:08:28.827Z,0.00
2018-09-09T09:09:28.856Z,0.10
2018-09-09T09:10:28.884Z,0.00
2018-09-09T09:11:28.906Z,0.10
2018-09-09T09:12:28.944Z,0.10
2018-09-09T09:13:28.964Z,0.10
2018-09-09T09:14:28.986Z,0.10
2018-09-09T09:15:29.010Z,0.10
2018-09-09T09:16:29.036Z,0.00
2018-09-09T09:17:29.064Z,0.10
2018-09-09T09:18:29.106Z,0.10
2018-09-09T09:19:29.114Z,0.10
2018-09-09T09:20:29.153Z,0.10
2018-09-09T09:21:29.167Z,0.10
2018-09-09T09:22:29.199Z,0.10
2018-09-09T09:23:29.245Z,0.10
2018-09-09T09:24:29.248Z,0.10
2018-09-09T09:25:29.270Z,0.00
2018-09-09T09:26:29.292Z,0.10
2018-09-09T09:27:29.328Z,0.10
2018-09-09T09:28:29.348Z,0.10
2018-09-09T09:29:29.372Z,0.10
2018-09-09T09:30:29.400Z,0.10
2018-09-09T09:31:29.422Z,0.10
2018-09-09T09:32:29.449Z,0.10
2018-09-09T09:33:29.476Z,0.10
2018-09-09T09:34:29.507Z,0.10
2018-09-09T09:35:29.529Z,0.00
2018-09-09T09:36:29.555Z,0.10
2018-09-09T09:37:29.580Z,0.00
2018-09-09T09:38:29.610Z,0.00
2018-09-09T09:39:29.741Z,0.00
2018-09-09T09:40:29.661Z,0.10
2018-09-09T09:41:29.678Z,0.10
2018-09-09T09:42:29.712Z,0.00
2018-09-09T09:43:29.736Z,0.00
2018-09-09T09:44:29.759Z,0.00
2018-09-09T09:45:29.788Z,0.00
2018-09-09T09:46:29.810Z,0.00
2018-09-09T09:47:29.833Z,0.00
2018-09-09T09:48:29.859Z,0.10
2018-09-09T09:49:29.890Z,0.00
2018-09-09T09:50:29.911Z,0.00
2018-09-09T09:51:29.936Z,0.00
2018-09-09T09:52:29.960Z,0.00
2018-09-09T09:53:30.012Z,0.10
2018-09-09T09:54:30.018Z,0.00
2018-09-09T09:55:30.074Z,0.10
2018-09-09T09:56:30.067Z,0.10
2018-09-09T09:57:30.097Z,0.00
2018-09-09T09:58:30.119Z,0.10
2018-09-09T09:59:30.138Z,0.00
2018-09-09T10:00:30.166Z,0.10
2018-09-09T10:01:30.194Z,0.10
2018-09-09T10:02:30.216Z,0.10
2018-09-09T10:03:30.311Z,0.10
2018-09-09T10:04:30.266Z,0.10
2018-09-09T10:05:30.294Z,0.10
2018-09-09T10:06:30.317Z,0.10
2018-09-09T10:07:30.346Z,0.10
2018-09-09T10:08:30.374Z,0.10
2018-09-09T10:09:30.398Z,0.10
2018-09-09T10:10:30.421Z,0.10
2018-09-09T10:11:30.444Z,0.10
2018-09-09T10:12:30.470Z,0.10
2018-09-09T10:13:30.504Z,0.10
2018-09-09T10:14:30.530Z,0.00
2018-09-09T10:15:30.552Z,0.00
2018-09-09T10:16:30.588Z,0.00
2018-09-09T10:17:30.601Z,0.00
2018-09-09T10:18:30.636Z,0.10
2018-09-09T10:19:30.662Z,0.10
2018-09-09T10:20:30.683Z,0.00
2018-09-09T10:21:30.713Z,0.10
2018-09-09T10:22:30.735Z,0.00
2018-09-09T10:23:30.763Z,0.10
2018-09-09T10:24:30.806Z,0.00
2018-09-09T10:25:30.812Z,0.10
2018-09-09T10:26:30.838Z,0.10
2018-09-09T10:27:30.871Z,0.00
2018-09-09T10:28:30.900Z,0.00
2018-09-09T10:29:30.928Z,0.10
2018-09-09T10:30:30.949Z,0.10
2018-09-09T10:31:30.979Z,0.10
2018-09-09T10:32:31.002Z,0.10
2018-09-09T10:33:31.028Z,0.10
2018-09-09T10:34:31.052Z,0.10
2018-09-09T10:35:31.084Z,0.10
2018-09-09T10:36:31.102Z,0.10
2018-09-09T10:37:31.130Z,0.00
2018-09-09T10:38:31.160Z,0.10
2018-09-09T10:39:31.185Z,0.10
2018-09-09T10:40:31.213Z,0.10
2018-09-09T10:41:31.242Z,0.10
2018-09-09T10:42:31.263Z,0.10
2018-09-09T10:43:31.289Z,0.10
2018-09-09T10:44:31.319Z,0.00
2018-09-09T10:45:31.350Z,0.10
2018-09-09T10:46:31.484Z,0.10
2018-09-09T10:47:31.401Z,0.10
2018-09-09T10:48:31.430Z,0.10
2018-09-09T10:49:31.454Z,0.00
2018-09-09T10:50:31.484Z,0.10
2018-09-09T10:51:31.509Z,0.10
2018-09-09T10:52:31.540Z,0.00
2018-09-09T10:53:31.568Z,0.10
2018-09-09T10:54:31.589Z,0.10
2018-09-09T10:55:31.613Z,0.00
2018-09-09T10:56:31.644Z,0.10
2018-09-09T10:57:31.672Z,0.10
2018-09-09T10:58:31.697Z,0.10
2018-09-09T10:59:31.723Z,0.10
2018-09-09T11:00:31.751Z,0.10
2018-09-09T11:01:31.782Z,0.10
2018-09-09T11:02:31.803Z,0.10
2018-09-09T11:03:31.831Z,0.10
2018-09-09T11:04:31.860Z,0.10
2018-09-09T11:05:31.892Z,0.10
2018-09-09T11:06:31.920Z,0.10
2018-09-09T11:07:31.946Z,0.10
2018-09-09T11:08:31.970Z,0.20
2018-09-09T11:09:31.998Z,0.20
2018-09-09T11:10:32.030Z,0.10
2018-09-09T11:11:32.064Z,0.10
2018-09-09T11:12:32.142Z,0.20
2018-09-09T11:13:32.118Z,0.20
2018-09-09T11:14:32.152Z,0.20
2018-09-09T11:15:32.176Z,0.20
2018-09-09T11:16:32.206Z,0.20
2018-09-09T11:17:32.244Z,0.10
2018-09-09T11:18:32.274Z,0.10
2018-09-09T11:19:32.302Z,0.20
2018-09-09T11:20:32.338Z,0.20
2018-09-09T11:21:32.377Z,0.20
2018-09-09T11:22:32.420Z,0.20
2018-09-09T11:23:32.427Z,0.20
2018-09-09T11:24:32.528Z,0.30
2018-09-09T11:25:32.496Z,0.30
2018-09-09T11:26:32.532Z,0.20
2018-09-09T11:27:32.562Z,0.30
2018-09-09T11:28:32.596Z,0.30
2018-09-09T11:29:32.637Z,0.30
2018-09-09T11:30:32.683Z,0.30
2018-09-09T11:31:32.706Z,0.30
2018-09-09T11:32:32.736Z,0.30
2018-09-09T11:33:32.772Z,0.30
2018-09-09T11:34:32.804Z,0.20
2018-09-09T11:35:32.832Z,0.20
2018-09-09T11:36:32.870Z,0.20
2018-09-09T11:37:32.905Z,0.30
2018-09-09T11:38:32.938Z,0.20
2018-09-09T11:39:33.012Z,0.20
2018-09-09T11:40:33.055Z,0.20
2018-09-09T11:41:33.040Z,0.30
2018-09-09T11:42:33.080Z,0.30
2018-09-09T11:43:33.108Z,0.30
2018-09-09T11:44:33.146Z,0.40
2018-09-09T11:45:33.176Z,0.40
2018-09-09T11:46:33.213Z,0.20
2018-09-09T11:47:33.251Z,0.20
2018-09-09T11:48:33.284Z,0.10
2018-09-09T11:49:33.324Z,0.10
2018-09-09T11:50:33.352Z,0.10
2018-09-09T11:51:33.388Z,0.10
2018-09-09T11:52:33.422Z,0.10
2018-09-09T11:53:33.456Z,0.10
2018-09-09T11:54:33.495Z,0.10
2018-09-09T11:55:33.514Z,0.20
2018-09-09T11:56:33.558Z,0.10
2018-09-09T11:57:33.588Z,0.10
2018-09-09T11:58:33.621Z,0.10
2018-09-09T11:59:33.656Z,0.10
2018-09-09T12:00:33.682Z,0.20
2018-09-09T12:01:33.713Z,0.20
2018-09-09T12:02:33.748Z,0.20
2018-09-09T12:03:33.779Z,0.20
2018-09-09T12:04:33.810Z,0.20
2018-09-09T12:05:33.845Z,0.20
2018-09-09T12:06:33.880Z,0.20
2018-09-09T12:07:33.963Z,0.20
2018-09-09T12:08:33.941Z,0.20
2018-09-09T12:09:33.969Z,0.20
2018-09-09T12:10:34.006Z,0.30
2018-09-09T12:11:34.035Z,0.30
2018-09-09T12:12:34.074Z,0.40
2018-09-09T12:13:34.107Z,0.40
2018-09-09T12:14:34.143Z,0.40
2018-09-09T12:15:34.176Z,0.40
2018-09-09T12:16:34.215Z,0.40
2018-09-09T12:17:34.244Z,0.30
2018-09-09T12:18:34.283Z,0.30
2018-09-09T12:19:34.316Z,0.20
2018-09-09T12:20:34.351Z,0.40
2018-09-09T12:21:34.387Z,0.30
2018-09-09T12:22:34.421Z,0.30
2018-09-09T12:23:34.530Z,0.20
2018-09-09T12:24:34.491Z,0.10
2018-09-09T12:25:34.532Z,0.40
2018-09-09T12:26:34.561Z,0.50
2018-09-09T12:27:34.595Z,0.50
2018-09-09T12:28:34.644Z,0.40
2018-09-09T12:29:34.664Z,0.50
2018-09-09T12:30:34.703Z,0.50
2018-09-09T12:31:34.750Z,0.50
2018-09-09T12:32:34.828Z,0.50
2018-09-09T12:33:34.817Z,0.50
2018-09-09T12:34:34.851Z,0.60
2018-09-09T12:35:34.898Z,0.60
2018-09-09T12:36:34.922Z,0.60
2018-09-09T12:37:34.963Z,0.50
2018-09-09T12:38:34.995Z,0.60
2018-09-09T12:39:35.038Z,0.60
2018-09-09T12:40:35.082Z,0.70
2018-09-09T12:41:35.107Z,0.70
2018-09-09T12:42:35.142Z,0.70
2018-09-09T12:44:35.219Z,0.50
2018-09-09T12:45:35.255Z,0.60
2018-09-09T12:46:35.296Z,0.70
2018-09-09T12:47:35.328Z,0.70
2018-09-09T12:48:35.372Z,0.70
2018-09-09T12:49:35.419Z,0.70
2018-09-09T12:50:35.449Z,0.70
2018-09-09T12:51:35.484Z,0.70
2018-09-09T12:52:35.531Z,0.70
2018-09-09T12:53:35.562Z,0.70
2018-09-09T12:54:35.598Z,0.80
2018-09-09T12:55:36.243Z,0.80
2018-09-09T12:56:35.674Z,0.80
2018-09-09T12:57:35.712Z,0.80
2018-09-09T12:58:35.762Z,0.80
2018-09-09T12:59:35.792Z,0.80
2018-09-09T13:00:35.898Z,0.80
2018-09-09T13:01:39.710Z,0.80
2018-09-09T13:02:37.129Z,0.80
2018-09-09T13:03:35.957Z,0.80
2018-09-09T13:04:35.989Z,0.70
2018-09-09T13:05:36.032Z,0.50
2018-09-09T13:06:36.071Z,0.40
2018-09-09T13:07:36.117Z,0.50
2018-09-09T13:08:36.145Z,0.70
2018-09-09T13:09:36.187Z,0.60
2018-09-09T13:10:36.224Z,0.40
2018-09-09T13:11:36.253Z,0.30
2018-09-09T13:12:36.297Z,0.30
2018-09-09T13:13:36.333Z,0.50
2018-09-09T13:14:36.369Z,0.40
2018-09-09T13:15:36.405Z,0.40
2018-09-09T13:16:36.442Z,0.50
2018-09-09T13:17:36.480Z,0.60
2018-09-09T13:18:36.527Z,0.60
2018-09-09T13:19:36.565Z,0.60